Little Red, Arkansas
Current Conditions -  °F | °C
As of 12:56 PM on Saturday 25 Oct 2014 (Local Time) from KSRC Reporting Station
Clear Clear  
Wind Chill: 81°   Ceiling: Unl
Heat Index: 82°   Visibility: 10mi
Dew Point: 64°   Wind: 6mph
Humidity: 56%   Direction: NA
Pressure: 30.07"   Gusts: NA
Location:  35.4331°N, 91.7663°W
Report Text: KSRC 251756Z AUTO VRB05KT 10SM CLR 27/18 A3007 RMK AO2 SLP186 T02720178 10272 20106 58016 TSNO
Loading
Personal Weather Stations






























Interactive Weather Map
Tropical Storm Tracking
New forecast layout! Learn more

10-Day Weather Forecast

Advertisements
Track Severe Weather on mobile